Time;durP1;ratioP1;P1;durP2;ratioP2;P2;SDS_P1;SDS_P2;PMS_P1;PMS_P2;Temp;Humidity;BMP_temperature;BMP_pressure;BME280_temperature;BME280_humidity;BME280_pressure;Samples;Min_cycle;Max_cycle;Signal;HPM_P1;HPM_P2
2022/08/27 00:00:22;;;;;;;3.17;1.30;;;23.30;99.90;;;;;;1050990;28;20554;-70
2022/08/27 00:00:53;;;;;;;3.97;1.40;;;23.30;99.90;;;;;;1050585;28;20008;-69
2022/08/27 00:01:25;;;;;;;1.37;1.07;;;23.30;99.90;;;;;;1051068;28;20077;-70
2022/08/27 00:01:56;;;;;;;2.15;1.20;;;23.30;99.90;;;;;;1050791;28;20020;-70
2022/08/27 00:02:26;;;;;;;2.17;1.37;;;23.30;99.90;;;;;;1051036;28;20127;-70
2022/08/27 00:02:57;;;;;;;2.90;1.20;;;23.30;99.90;;;;;;1050879;28;20023;-71
2022/08/27 00:03:28;;;;;;;2.67;1.03;;;23.30;99.90;;;;;;1045071;28;20012;-70
2022/08/27 00:03:58;;;;;;;3.77;1.30;;;23.30;99.90;;;;;;1046695;28;20097;-69
2022/08/27 00:04:29;;;;;;;1.23;0.90;;;23.30;99.90;;;;;;1048679;28;20404;-70
2022/08/27 00:05:00;;;;;;;2.92;1.10;;;23.20;99.90;;;;;;1050558;28;20015;-69
2022/08/27 00:05:31;;;;;;;3.63;1.30;;;23.20;99.90;;;;;;1046754;28;20093;-70
2022/08/27 00:06:03;;;;;;;2.03;1.00;;;23.30;99.90;;;;;;1048015;28;20025;-71
2022/08/27 00:06:34;;;;;;;2.83;1.30;;;23.20;99.90;;;;;;1051407;28;20047;-70
2022/08/27 00:07:06;;;;;;;2.10;1.42;;;23.20;99.90;;;;;;1047678;28;20190;-69
2022/08/27 00:07:37;;;;;;;2.53;1.70;;;23.20;99.90;;;;;;1047971;28;20523;-68
2022/08/27 00:08:11;;;;;;;2.03;1.20;;;23.20;99.90;;;;;;1050976;28;20427;-70
2022/08/27 00:08:43;;;;;;;2.88;1.40;;;23.30;99.90;;;;;;1048037;28;20055;-69
2022/08/27 00:09:13;;;;;;;3.58;1.30;;;23.30;99.90;;;;;;1049921;28;20021;-70
2022/08/27 00:09:44;;;;;;;3.07;1.30;;;23.30;99.90;;;;;;1055578;28;20024;-70
2022/08/27 00:10:20;;;;;;;2.23;1.47;;;23.30;99.90;;;;;;1053693;28;20027;-70
2022/08/27 00:10:51;;;;;;;2.38;1.42;;;23.30;99.90;;;;;;1052971;28;20097;-70
2022/08/27 00:11:24;;;;;;;2.63;1.35;;;23.20;99.90;;;;;;1050797;28;20012;-69
2022/08/27 00:11:56;;;;;;;3.22;1.23;;;23.20;99.90;;;;;;1049791;28;20052;-69
2022/08/27 00:12:27;;;;;;;1.45;1.00;;;23.20;99.90;;;;;;1047924;28;20104;-70
2022/08/27 00:12:57;;;;;;;2.50;1.30;;;23.30;99.90;;;;;;1051491;28;20016;-69
2022/08/27 00:13:28;;;;;;;3.30;1.67;;;23.30;99.90;;;;;;1055072;28;20075;-70
2022/08/27 00:13:59;;;;;;;4.17;1.63;;;23.20;99.90;;;;;;1051408;28;20048;-71
2022/08/27 00:14:30;;;;;;;2.72;1.17;;;23.30;99.90;;;;;;1050929;28;20527;-71
2022/08/27 00:15:01;;;;;;;2.23;1.37;;;23.30;99.90;;;;;;1046809;28;20020;-70
2022/08/27 00:15:32;;;;;;;3.60;1.55;;;23.20;99.90;;;;;;1043365;28;20021;-69
2022/08/27 00:16:05;;;;;;;2.78;1.40;;;23.20;99.90;;;;;;1042965;28;20009;-70
2022/08/27 00:16:36;;;;;;;3.63;1.83;;;23.20;99.90;;;;;;1042425;28;20115;-70
2022/08/27 00:17:06;;;;;;;3.53;1.30;;;23.30;99.90;;;;;;1042957;28;20032;-69
2022/08/27 00:17:37;;;;;;;2.43;1.27;;;23.20;99.90;;;;;;1045714;28;20025;-69
2022/08/27 00:18:08;;;;;;;3.70;1.43;;;23.30;99.90;;;;;;1051291;28;20128;-69
2022/08/27 00:18:40;;;;;;;2.70;1.20;;;23.30;99.90;;;;;;1055505;28;20297;-70
2022/08/27 00:19:11;;;;;;;3.45;1.40;;;23.20;99.90;;;;;;1053983;28;20024;-69
2022/08/27 00:19:42;;;;;;;1.53;1.10;;;23.30;99.90;;;;;;1049519;28;20375;-69
2022/08/27 00:20:16;;;;;;;2.53;0.90;;;23.30;99.90;;;;;;1051178;28;20020;-70
2022/08/27 00:20:47;;;;;;;2.67;1.30;;;23.30;99.90;;;;;;1050053;28;20282;-70
2022/08/27 00:21:17;;;;;;;3.47;1.53;;;23.30;99.90;;;;;;1047517;28;20077;-70
2022/08/27 00:21:49;;;;;;;1.93;1.03;;;23.30;99.90;;;;;;1052149;28;20034;-70
2022/08/27 00:22:20;;;;;;;2.50;1.30;;;23.30;99.90;;;;;;1055660;28;20467;-70
2022/08/27 00:22:51;;;;;;;2.50;1.33;;;23.30;99.90;;;;;;1050632;28;20487;-70
2022/08/27 00:23:22;;;;;;;3.65;1.40;;;23.30;99.90;;;;;;1051123;28;20017;-69
2022/08/27 00:23:52;;;;;;;2.83;1.40;;;23.30;99.90;;;;;;1051656;28;20020;-69
2022/08/27 00:24:23;;;;;;;2.17;1.40;;;23.30;99.90;;;;;;1049552;28;20028;-69
2022/08/27 00:24:54;;;;;;;2.67;1.50;;;23.30;99.90;;;;;;1047326;28;20048;-69
2022/08/27 00:25:26;;;;;;;2.53;1.30;;;23.30;99.90;;;;;;1047780;28;20111;-70
2022/08/27 00:25:58;;;;;;;3.88;1.52;;;23.20;99.90;;;;;;1049661;28;20019;-70
2022/08/27 00:26:28;;;;;;;2.33;1.15;;;23.30;99.90;;;;;;1052113;28;20024;-69
2022/08/27 00:26:59;;;;;;;2.30;1.30;;;23.20;99.90;;;;;;1051800;28;20020;-70
2022/08/27 00:27:30;;;;;;;2.43;1.47;;;23.20;99.90;;;;;;1054051;28;20027;-72
2022/08/27 00:28:00;;;;;;;2.70;1.47;;;23.20;99.90;;;;;;1052264;28;20016;-70
2022/08/27 00:28:32;;;;;;;5.47;1.63;;;23.20;99.90;;;;;;1047509;28;20024;-70
2022/08/27 00:29:03;;;;;;;3.20;2.10;;;23.20;99.90;;;;;;1044021;28;20063;-72
2022/08/27 00:29:34;;;;;;;2.95;1.50;;;23.20;99.90;;;;;;1044695;28;20018;-69
2022/08/27 00:30:09;;;;;;;2.50;1.10;;;23.20;99.90;;;;;;1043935;28;20052;-71
2022/08/27 00:30:39;;;;;;;3.42;1.25;;;23.20;99.90;;;;;;1048831;28;20101;-70
2022/08/27 00:31:10;;;;;;;2.00;1.40;;;23.20;99.90;;;;;;1055000;27;20107;-70
2022/08/27 00:31:42;;;;;;;2.53;1.02;;;23.20;99.90;;;;;;1047557;28;20024;-69
2022/08/27 00:32:13;;;;;;;3.17;1.35;;;23.20;99.90;;;;;;1047535;28;20020;-70
2022/08/27 00:32:44;;;;;;;2.10;1.33;;;23.20;99.90;;;;;;1050625;28;20591;-70
2022/08/27 00:33:14;;;;;;;2.63;1.43;;;23.20;99.90;;;;;;1047917;28;20009;-68
2022/08/27 00:33:45;;;;;;;1.97;1.30;;;23.20;99.90;;;;;;1051999;28;20046;-69
2022/08/27 00:34:15;;;;;;;3.63;1.40;;;23.20;99.90;;;;;;1054684;28;20020;-69
2022/08/27 00:34:46;;;;;;;2.27;1.30;;;23.20;99.90;;;;;;1051382;28;20023;-70
2022/08/27 00:35:17;;;;;;;2.87;1.47;;;23.20;99.90;;;;;;1051822;28;20024;-70
2022/08/27 00:35:48;;;;;;;2.60;1.55;;;23.20;99.90;;;;;;1051625;28;20048;-69
2022/08/27 00:36:19;;;;;;;1.60;1.02;;;23.20;99.90;;;;;;1049657;28;20039;-70
2022/08/27 00:36:50;;;;;;;2.17;0.90;;;23.20;99.90;;;;;;1051988;28;20111;-70
2022/08/27 00:37:20;;;;;;;2.93;1.20;;;23.20;99.90;;;;;;1052847;28;20020;-70
2022/08/27 00:37:51;;;;;;;3.57;1.57;;;23.20;99.90;;;;;;1051248;28;20024;-69
2022/08/27 00:38:23;;;;;;;3.80;1.53;;;23.20;99.90;;;;;;1048419;28;20116;-69
2022/08/27 00:38:53;;;;;;;3.95;1.45;;;23.20;99.90;;;;;;1047270;28;20928;-69
2022/08/27 00:39:24;;;;;;;2.93;1.53;;;23.20;99.90;;;;;;1051856;28;20558;-69
2022/08/27 00:39:54;;;;;;;3.17;1.20;;;23.20;99.90;;;;;;1052145;28;20501;-69
2022/08/27 00:40:26;;;;;;;2.47;1.37;;;23.20;99.90;;;;;;1052121;28;20020;-70
2022/08/27 00:40:59;;;;;;;2.67;1.40;;;23.10;99.90;;;;;;1050277;28;20077;-69
2022/08/27 00:41:30;;;;;;;3.33;1.15;;;23.20;99.90;;;;;;1048522;28;20095;-70
2022/08/27 00:42:01;;;;;;;2.37;1.40;;;23.10;99.90;;;;;;1047623;28;20392;-70
2022/08/27 00:42:31;;;;;;;1.57;1.30;;;23.20;99.90;;;;;;1050274;28;20472;-69
2022/08/27 00:43:02;;;;;;;1.93;1.20;;;23.10;99.90;;;;;;1054692;28;20023;-70
2022/08/27 00:43:49;;;;;;;3.10;1.50;;;23.20;99.90;;;;;;1056267;28;20081;-70
2022/08/27 00:44:19;;;;;;;2.92;1.30;;;23.10;99.90;;;;;;1051680;28;20103;-70
2022/08/27 00:44:50;;;;;;;3.27;1.73;;;23.10;99.90;;;;;;1049009;28;20047;-69
2022/08/27 00:45:23;;;;;;;2.73;1.40;;;23.10;99.90;;;;;;1047293;28;20387;-69
2022/08/27 00:46:03;;;;;;;1.75;1.25;;;23.10;99.90;;;;;;1047736;28;20414;-68
2022/08/27 00:46:48;;;;;;;1.98;1.10;;;23.10;99.90;;;;;;1051685;28;20107;-69
2022/08/27 00:47:22;;;;;;;3.75;1.33;;;23.10;99.90;;;;;;1052262;28;20073;-69
2022/08/27 00:47:56;;;;;;;2.65;1.17;;;23.10;99.90;;;;;;1056152;28;20027;-69
2022/08/27 00:48:30;;;;;;;2.47;1.27;;;23.10;99.90;;;;;;1047494;28;20438;-70
2022/08/27 00:49:06;;;;;;;2.78;1.40;;;23.10;99.90;;;;;;1048171;28;20163;-70
2022/08/27 00:49:45;;;;;;;3.10;1.58;;;23.10;99.90;;;;;;1051741;28;20483;-69
2022/08/27 00:50:22;;;;;;;2.08;1.40;;;23.10;99.90;;;;;;1050100;28;20052;-69
2022/08/27 00:50:54;;;;;;;1.73;1.35;;;23.10;99.90;;;;;;1054392;28;20105;-68
2022/08/27 00:51:27;;;;;;;4.82;1.48;;;23.10;99.90;;;;;;1055400;28;20011;-69
2022/08/27 00:52:04;;;;;;;2.75;1.27;;;23.10;99.90;;;;;;1051869;28;20016;-70
2022/08/27 00:52:57;;;;;;;3.33;1.80;;;23.10;99.90;;;;;;1054609;28;20027;-68
2022/08/27 00:53:32;;;;;;;4.03;1.48;;;23.10;99.90;;;;;;1052798;28;20030;-69
2022/08/27 00:54:05;;;;;;;2.35;1.30;;;23.10;99.90;;;;;;1056339;28;20214;-70
2022/08/27 00:54:35;;;;;;;3.13;1.02;;;23.10;99.90;;;;;;1051286;28;20653;-70
2022/08/27 00:55:17;;;;;;;1.80;1.20;;;23.10;99.90;;;;;;1048280;28;20711;-69
2022/08/27 00:56:08;;;;;;;2.00;1.30;;;23.10;99.90;;;;;;1048428;28;20028;-68
2022/08/27 00:56:43;;;;;;;2.65;1.35;;;23.10;99.90;;;;;;1049817;28;20543;-69
2022/08/27 00:57:14;;;;;;;3.95;1.65;;;23.20;99.90;;;;;;1047059;28;20020;-70
2022/08/27 00:57:51;;;;;;;3.27;1.20;;;23.20;99.90;;;;;;1050137;28;20016;-69
2022/08/27 00:58:35;;;;;;;2.53;1.73;;;23.20;99.90;;;;;;1046960;28;20021;-69
2022/08/27 00:59:05;;;;;;;2.70;1.45;;;23.20;99.90;;;;;;1047291;28;20020;-69
2022/08/27 00:59:36;;;;;;;2.97;1.40;;;23.20;99.90;;;;;;1045594;28;20062;-69
2022/08/27 01:00:11;;;;;;;3.20;1.65;;;23.20;99.90;;;;;;1049206;28;20435;-68
2022/08/27 01:00:44;;;;;;;2.90;1.42;;;23.20;99.90;;;;;;1049672;28;20035;-70
2022/08/27 01:01:19;;;;;;;2.28;1.40;;;23.20;99.90;;;;;;1048055;28;20029;-70
2022/08/27 01:02:40;;;;;;;1.92;1.27;;;23.10;99.90;;;;;;1047306;28;20055;-69
2022/08/27 01:03:11;;;;;;;3.30;1.40;;;23.10;99.90;;;;;;1055028;28;20378;-69
2022/08/27 01:03:46;;;;;;;2.30;1.23;;;23.10;99.90;;;;;;1054810;28;20696;-70
2022/08/27 01:04:17;;;;;;;3.47;1.30;;;23.10;99.90;;;;;;1055856;28;20023;-70
2022/08/27 01:04:52;;;;;;;2.13;1.30;;;23.10;99.90;;;;;;1055727;28;20606;-70
2022/08/27 01:05:25;;;;;;;2.92;1.20;;;23.10;99.90;;;;;;1048379;28;20021;-70
2022/08/27 01:06:00;;;;;;;2.17;1.38;;;23.10;99.90;;;;;;1051154;28;20012;-70
2022/08/27 01:06:35;;;;;;;2.40;1.45;;;23.10;99.90;;;;;;1047617;28;20103;-70
2022/08/27 01:07:06;;;;;;;2.08;1.40;;;23.10;99.90;;;;;;1049033;28;20016;-69
2022/08/27 01:07:39;;;;;;;3.33;1.13;;;23.10;99.90;;;;;;1048390;28;20036;-70
2022/08/27 01:08:20;;;;;;;2.55;1.25;;;23.10;99.90;;;;;;1051141;28;20012;-69
2022/08/27 01:08:57;;;;;;;2.78;1.35;;;23.10;99.90;;;;;;1048419;28;20104;-69
2022/08/27 01:09:28;;;;;;;3.33;1.60;;;23.10;99.90;;;;;;1051034;28;20015;-69
2022/08/27 01:10:01;;;;;;;2.90;1.53;;;23.10;99.90;;;;;;1059733;27;20007;-69
2022/08/27 01:10:32;;;;;;;3.25;1.38;;;23.00;99.90;;;;;;1059235;27;20028;-70
2022/08/27 01:11:03;;;;;;;2.83;1.17;;;23.10;99.90;;;;;;1055152;28;20038;-69
2022/08/27 01:11:34;;;;;;;2.77;1.60;;;23.00;99.90;;;;;;1055092;28;20102;-74
2022/08/27 01:12:04;;;;;;;2.63;1.60;;;23.00;99.90;;;;;;1048901;28;20103;-70
2022/08/27 01:12:36;;;;;;;3.07;1.40;;;23.00;99.90;;;;;;1050679;28;20023;-69
2022/08/27 01:13:13;;;;;;;3.50;1.35;;;23.00;99.90;;;;;;1051082;28;20020;-70
2022/08/27 01:13:44;;;;;;;3.22;1.60;;;23.00;99.90;;;;;;1049743;28;20020;-70
2022/08/27 01:14:16;;;;;;;2.67;1.33;;;23.00;99.90;;;;;;1051572;28;20031;-70
2022/08/27 01:14:47;;;;;;;2.03;1.35;;;23.00;99.90;;;;;;1052874;28;20090;-70
2022/08/27 01:15:19;;;;;;;1.50;1.20;;;23.00;99.90;;;;;;1053516;28;20035;-69
2022/08/27 01:15:52;;;;;;;2.80;1.38;;;23.00;99.90;;;;;;1055416;28;20024;-70
2022/08/27 01:16:26;;;;;;;3.25;1.30;;;23.00;99.90;;;;;;1055737;28;20781;-70
2022/08/27 01:16:59;;;;;;;2.72;1.40;;;23.00;99.90;;;;;;1051112;28;20016;-70
2022/08/27 01:17:30;;;;;;;4.13;1.38;;;23.00;99.90;;;;;;1045298;28;20066;-68
2022/08/27 01:18:04;;;;;;;2.53;1.60;;;22.90;99.90;;;;;;1044181;28;20032;-69
2022/08/27 01:18:36;;;;;;;2.83;1.30;;;23.00;99.90;;;;;;1048030;28;20021;-68
2022/08/27 01:19:26;;;;;;;2.83;1.48;;;23.00;99.90;;;;;;1051780;28;20043;-69
2022/08/27 01:20:01;;;;;;;2.47;1.23;;;23.00;99.90;;;;;;1056010;28;20024;-69
2022/08/27 01:20:47;;;;;;;2.10;1.25;;;22.90;99.90;;;;;;1055352;28;20028;-69
2022/08/27 01:21:37;;;;;;;3.90;1.30;;;22.90;99.90;;;;;;1046964;28;20029;-69
2022/08/27 01:22:42;;;;;;;2.58;1.52;;;22.90;99.90;;;;;;1047279;28;20021;-69
2022/08/27 01:23:17;;;;;;;2.65;1.45;;;22.90;99.90;;;;;;1050082;28;20132;-70
2022/08/27 01:24:01;;;;;;;2.75;1.23;;;22.90;99.90;;;;;;1050986;28;20032;-69
2022/08/27 01:24:42;;;;;;;3.55;1.60;;;22.90;99.90;;;;;;1049372;28;20099;-70
2022/08/27 01:25:15;;;;;;;3.13;1.83;;;22.90;99.90;;;;;;1050798;28;20020;-69
2022/08/27 01:25:47;;;;;;;4.97;1.30;;;22.90;99.90;;;;;;1051215;28;20054;-69
2022/08/27 01:26:19;;;;;;;2.53;1.35;;;22.90;99.90;;;;;;1051388;28;20016;-70
2022/08/27 01:26:50;;;;;;;2.45;1.45;;;22.90;99.90;;;;;;1051967;28;21214;-70
2022/08/27 01:27:24;;;;;;;2.85;1.40;;;22.90;99.90;;;;;;1055940;28;20011;-70
2022/08/27 01:27:58;;;;;;;1.70;1.20;;;22.90;99.90;;;;;;1053342;28;20907;-70
2022/08/27 01:28:30;;;;;;;2.85;1.50;;;22.90;99.90;;;;;;1056091;28;20099;-70
2022/08/27 01:29:01;;;;;;;3.42;1.60;;;22.90;99.90;;;;;;1055530;28;20043;-70
2022/08/27 01:29:33;;;;;;;1.30;1.20;;;22.90;99.90;;;;;;1053166;28;20102;-71
2022/08/27 01:30:05;;;;;;;2.65;1.63;;;22.90;99.90;;;;;;1054068;28;20483;-70
2022/08/27 01:30:36;;;;;;;2.63;1.40;;;22.90;99.90;;;;;;1055654;28;20028;-69
2022/08/27 01:31:09;;;;;;;4.13;1.50;;;22.90;99.90;;;;;;1051075;28;20114;-69
2022/08/27 01:31:40;;;;;;;3.08;1.40;;;22.90;99.90;;;;;;1051223;28;20032;-69
2022/08/27 01:32:20;;;;;;;3.37;1.50;;;22.90;99.90;;;;;;1051328;28;20098;-70
2022/08/27 01:32:52;;;;;;;3.15;1.40;;;22.90;99.90;;;;;;1047026;28;20578;-69
2022/08/27 01:33:23;;;;;;;2.85;1.60;;;22.90;99.90;;;;;;1047992;28;20096;-70
2022/08/27 01:33:57;;;;;;;3.40;1.67;;;22.90;99.90;;;;;;1051396;28;20015;-70
2022/08/27 01:34:27;;;;;;;3.45;1.75;;;22.90;99.90;;;;;;1051441;28;20128;-71
2022/08/27 01:35:00;;;;;;;3.33;1.97;;;22.90;99.90;;;;;;1050876;28;20031;-70
2022/08/27 01:35:30;;;;;;;2.22;1.65;;;22.90;99.90;;;;;;1050774;28;20094;-69
2022/08/27 01:36:02;;;;;;;1.37;0.93;;;22.90;99.90;;;;;;1051940;28;20008;-70
2022/08/27 01:36:33;;;;;;;2.88;1.52;;;22.90;99.90;;;;;;1050567;28;20012;-69
2022/08/27 01:37:05;;;;;;;1.80;1.17;;;22.90;99.90;;;;;;1051147;28;20012;-69
2022/08/27 01:37:36;;;;;;;3.92;1.55;;;22.90;99.90;;;;;;1048656;28;20103;-69
2022/08/27 01:38:09;;;;;;;4.18;1.52;;;22.90;99.90;;;;;;1045299;28;20016;-71
2022/08/27 01:38:39;;;;;;;2.70;1.65;;;22.90;99.90;;;;;;1055205;28;20340;-70
2022/08/27 01:39:10;;;;;;;3.67;1.97;;;22.90;99.90;;;;;;1055231;28;20542;-70
2022/08/27 01:39:41;;;;;;;2.65;1.63;;;22.90;99.90;;;;;;1055486;27;20398;-69
2022/08/27 01:40:12;;;;;;;4.63;1.65;;;22.90;99.90;;;;;;1055391;28;20111;-70
2022/08/27 01:40:43;;;;;;;4.40;1.67;;;22.90;99.90;;;;;;1051382;28;20023;-69
2022/08/27 01:41:13;;;;;;;2.63;1.17;;;22.90;99.90;;;;;;1050292;28;20031;-69
2022/08/27 01:41:44;;;;;;;3.90;1.33;;;22.90;99.90;;;;;;1048782;28;20131;-70
2022/08/27 01:42:48;;;;;;;4.30;1.60;;;22.90;99.90;;;;;;1055869;28;20023;-70
2022/08/27 01:43:19;;;;;;;2.00;1.27;;;22.90;99.90;;;;;;1037325;28;20033;-70
2022/08/27 01:43:50;;;;;;;2.73;1.53;;;22.90;99.90;;;;;;1055418;28;20031;-70
2022/08/27 01:44:21;;;;;;;2.60;1.30;;;22.90;99.90;;;;;;1055845;28;20474;-71
2022/08/27 01:44:55;;;;;;;1.90;1.40;;;22.90;99.90;;;;;;1055747;28;20486;-70
2022/08/27 01:45:31;;;;;;;2.65;1.02;;;22.90;99.90;;;;;;1054879;28;20057;-70
2022/08/27 01:46:01;;;;;;;1.73;1.27;;;22.90;99.90;;;;;;1054565;28;20133;-70
2022/08/27 01:46:32;;;;;;;2.33;1.40;;;22.90;99.90;;;;;;1054493;28;20153;-71
2022/08/27 01:47:02;;;;;;;2.70;1.30;;;22.90;99.90;;;;;;1055905;28;20051;-70
2022/08/27 01:47:35;;;;;;;3.30;1.87;;;22.90;99.90;;;;;;1055804;28;20016;-71
2022/08/27 01:48:08;;;;;;;2.97;1.20;;;22.80;99.90;;;;;;1050163;28;20012;-71
2022/08/27 01:48:39;;;;;;;2.50;1.15;;;22.90;99.90;;;;;;1048334;28;20096;-70
2022/08/27 01:49:10;;;;;;;1.70;1.20;;;22.80;99.90;;;;;;1051178;28;20131;-70
2022/08/27 01:49:40;;;;;;;4.23;1.70;;;22.80;99.90;;;;;;1051667;28;20020;-70
2022/08/27 01:50:15;;;;;;;5.23;1.90;;;22.80;99.90;;;;;;1049388;28;20009;-70
2022/08/27 01:50:47;;;;;;;2.22;1.17;;;22.80;99.90;;;;;;1052514;28;20099;-70
2022/08/27 01:51:18;;;;;;;2.42;1.40;;;22.80;99.90;;;;;;1055507;28;20003;-70
2022/08/27 01:51:48;;;;;;;3.60;1.67;;;22.80;99.90;;;;;;1055382;28;20419;-70
2022/08/27 01:52:21;;;;;;;4.43;2.30;;;22.80;99.90;;;;;;1054918;28;20026;-70
2022/08/27 01:52:53;;;;;;;2.63;1.45;;;22.80;99.90;;;;;;1051208;28;20099;-70
2022/08/27 01:53:25;;;;;;;2.35;1.40;;;22.80;99.90;;;;;;1051187;28;20062;-70
2022/08/27 01:53:56;;;;;;;4.10;1.95;;;22.80;99.90;;;;;;1051116;28;20055;-69
2022/08/27 01:54:28;;;;;;;3.35;1.63;;;22.80;99.90;;;;;;1051201;28;20017;-70
2022/08/27 01:54:59;;;;;;;2.05;1.10;;;22.80;99.90;;;;;;1051244;28;20009;-70
2022/08/27 01:55:30;;;;;;;2.20;1.40;;;22.80;99.90;;;;;;1051802;28;20016;-70
2022/08/27 01:56:00;;;;;;;2.83;1.60;;;22.80;99.90;;;;;;1056054;28;20015;-70
2022/08/27 01:56:31;;;;;;;2.20;1.60;;;22.80;99.90;;;;;;1054850;28;20114;-70
2022/08/27 01:57:02;;;;;;;3.27;1.67;;;22.80;99.90;;;;;;1053563;28;20012;-70
2022/08/27 01:57:34;;;;;;;2.15;1.45;;;22.70;99.90;;;;;;1055722;28;20472;-70
2022/08/27 01:58:04;;;;;;;1.60;1.10;;;22.70;99.90;;;;;;1059516;27;20129;-70
2022/08/27 01:58:35;;;;;;;1.97;1.40;;;22.70;99.90;;;;;;1058025;27;20012;-70
2022/08/27 01:59:06;;;;;;;2.42;1.55;;;22.70;99.90;;;;;;1055437;28;20084;-68
2022/08/27 01:59:37;;;;;;;1.93;1.20;;;22.70;99.90;;;;;;1055304;28;20060;-69
2022/08/27 02:00:16;;;;;;;3.47;1.63;;;22.70;99.90;;;;;;1051454;28;20057;-69
2022/08/27 02:00:50;;;;;;;2.90;1.67;;;22.70;99.90;;;;;;1052203;28;20332;-69
2022/08/27 02:01:21;;;;;;;4.05;1.85;;;22.70;99.90;;;;;;1055769;28;20015;-69
2022/08/27 02:01:54;;;;;;;1.97;1.17;;;22.70;99.90;;;;;;1055536;28;20087;-69
2022/08/27 02:02:25;;;;;;;2.72;1.55;;;22.70;99.90;;;;;;1055796;28;20016;-70
2022/08/27 02:02:57;;;;;;;1.93;1.20;;;22.70;99.90;;;;;;1051034;28;20095;-70
2022/08/27 02:03:28;;;;;;;3.25;1.27;;;22.70;99.90;;;;;;1051017;28;20025;-68
2022/08/27 02:03:58;;;;;;;2.50;1.30;;;22.70;99.90;;;;;;1051038;28;20012;-69
2022/08/27 02:04:29;;;;;;;2.43;1.47;;;22.70;99.90;;;;;;1047266;28;20040;-69
2022/08/27 02:05:00;;;;;;;1.77;1.17;;;22.70;99.90;;;;;;1047235;28;20025;-70
2022/08/27 02:05:31;;;;;;;4.33;1.60;;;22.70;99.90;;;;;;1047002;28;20461;-68
2022/08/27 02:06:07;;;;;;;3.78;1.40;;;22.70;99.90;;;;;;1043522;28;20013;-69
2022/08/27 02:06:37;;;;;;;2.85;1.35;;;22.70;99.90;;;;;;1038822;28;20029;-69
2022/08/27 02:07:08;;;;;;;4.73;1.63;;;22.70;99.90;;;;;;1039431;28;20032;-70
2022/08/27 02:07:39;;;;;;;3.50;1.50;;;22.70;99.90;;;;;;1038695;28;20021;-70
2022/08/27 02:08:11;;;;;;;1.60;1.25;;;22.70;99.90;;;;;;1038883;28;20072;-70
2022/08/27 02:08:42;;;;;;;3.92;1.67;;;22.70;99.90;;;;;;1036485;28;20017;-69
2022/08/27 02:09:12;;;;;;;3.27;1.37;;;22.70;99.90;;;;;;1038814;28;20087;-69
2022/08/27 02:09:43;;;;;;;3.10;1.60;;;22.70;99.90;;;;;;1043089;28;20996;-69
2022/08/27 02:10:19;;;;;;;2.73;1.23;;;22.70;99.90;;;;;;1038925;28;20060;-70
2022/08/27 02:10:49;;;;;;;2.83;1.50;;;22.70;99.90;;;;;;1047011;28;20024;-70
2022/08/27 02:11:20;;;;;;;2.13;1.40;;;22.70;99.90;;;;;;1047226;28;20012;-70
2022/08/27 02:11:51;;;;;;;2.37;1.40;;;22.70;99.90;;;;;;1046042;28;20022;-69
2022/08/27 02:12:22;;;;;;;3.23;1.30;;;22.70;99.90;;;;;;1046649;28;20027;-69
2022/08/27 02:12:52;;;;;;;3.00;1.53;;;22.70;99.90;;;;;;1046850;28;20015;-70
2022/08/27 02:13:23;;;;;;;2.57;1.63;;;22.70;99.90;;;;;;1046701;28;20020;-69
2022/08/27 02:13:53;;;;;;;3.77;1.67;;;22.70;99.90;;;;;;1045895;28;20032;-69
2022/08/27 02:14:24;;;;;;;4.60;1.40;;;22.70;99.90;;;;;;1046935;28;20012;-69
2022/08/27 02:14:54;;;;;;;3.80;1.40;;;22.70;99.90;;;;;;1047336;28;20486;-69
2022/08/27 02:15:26;;;;;;;4.73;1.83;;;22.70;99.90;;;;;;1044868;28;20671;-69
2022/08/27 02:15:56;;;;;;;3.60;1.48;;;22.70;99.90;;;;;;1045838;28;20142;-69
2022/08/27 02:16:27;;;;;;;4.10;1.53;;;22.70;99.90;;;;;;1047475;28;20041;-69
2022/08/27 02:16:58;;;;;;;5.07;1.93;;;22.70;99.90;;;;;;1047369;28;20074;-69
2022/08/27 02:17:28;;;;;;;2.23;1.40;;;22.70;99.90;;;;;;1045810;28;20744;-70
2022/08/27 02:18:00;;;;;;;3.83;1.67;;;22.70;99.90;;;;;;1044690;28;20523;-70
2022/08/27 02:18:31;;;;;;;2.58;1.40;;;22.70;99.90;;;;;;1046769;28;20040;-69
2022/08/27 02:19:03;;;;;;;3.97;1.57;;;22.70;99.90;;;;;;1047128;28;20015;-69
2022/08/27 02:19:33;;;;;;;2.90;1.55;;;22.70;99.90;;;;;;1046456;28;20090;-69
2022/08/27 02:20:08;;;;;;;2.27;1.47;;;22.70;99.90;;;;;;1047100;28;20016;-69
2022/08/27 02:20:39;;;;;;;2.28;1.20;;;22.70;99.90;;;;;;1046982;28;20016;-69
2022/08/27 02:21:09;;;;;;;5.10;2.00;;;22.70;99.90;;;;;;1043240;28;20005;-70
2022/08/27 02:21:40;;;;;;;2.40;1.23;;;22.70;99.90;;;;;;1042388;28;20267;-69
2022/08/27 02:22:10;;;;;;;2.37;1.70;;;22.70;99.90;;;;;;1042796;28;20035;-70
2022/08/27 02:22:41;;;;;;;2.67;1.30;;;22.70;99.90;;;;;;1041129;28;20105;-69
2022/08/27 02:23:13;;;;;;;2.37;1.20;;;22.70;99.90;;;;;;1046882;28;20040;-70
2022/08/27 02:23:44;;;;;;;1.77;1.23;;;22.60;99.90;;;;;;1046676;28;20146;-70
2022/08/27 02:24:15;;;;;;;2.75;1.80;;;22.70;99.90;;;;;;1046910;28;20009;-69
2022/08/27 02:24:45;;;;;;;2.10;1.40;;;22.70;99.90;;;;;;1046804;28;20021;-69
2022/08/27 02:25:18;;;;;;;2.33;1.40;;;22.70;99.90;;;;;;1046908;28;20024;-69
2022/08/27 02:25:49;;;;;;;3.13;1.60;;;22.60;99.90;;;;;;1046741;28;20940;-69
2022/08/27 02:26:21;;;;;;;2.80;1.58;;;22.70;99.90;;;;;;1047150;28;20435;-72
2022/08/27 02:26:53;;;;;;;3.20;1.60;;;22.60;99.90;;;;;;1046902;28;20456;-70
2022/08/27 02:27:23;;;;;;;2.95;1.42;;;22.70;99.90;;;;;;1047402;28;20115;-69
2022/08/27 02:27:56;;;;;;;4.80;1.80;;;22.70;99.90;;;;;;1047118;28;20656;-70
2022/08/27 02:28:27;;;;;;;3.33;1.30;;;22.60;99.90;;;;;;1046814;28;20017;-69
2022/08/27 02:28:58;;;;;;;2.80;1.40;;;22.60;99.90;;;;;;1046716;28;20035;-71
2022/08/27 02:29:28;;;;;;;2.00;1.50;;;22.60;99.90;;;;;;1045115;28;20029;-69
2022/08/27 02:29:59;;;;;;;5.20;1.90;;;22.60;99.90;;;;;;1046190;28;20026;-69
2022/08/27 02:30:31;;;;;;;3.13;1.20;;;22.60;99.90;;;;;;1047154;28;20044;-69
2022/08/27 02:31:02;;;;;;;3.08;1.58;;;22.60;99.90;;;;;;1046237;28;20013;-69
2022/08/27 02:31:33;;;;;;;1.67;1.27;;;22.60;99.90;;;;;;1043172;28;20017;-71
2022/08/27 02:32:03;;;;;;;2.53;1.50;;;22.60;99.90;;;;;;1045886;28;20096;-70
2022/08/27 02:32:34;;;;;;;5.17;1.80;;;22.60;99.90;;;;;;1046839;28;20345;-69
2022/08/27 02:33:05;;;;;;;2.10;1.43;;;22.60;99.90;;;;;;1043500;28;20709;-69
2022/08/27 02:33:36;;;;;;;2.58;1.70;;;22.60;99.90;;;;;;1047068;28;20020;-70
2022/08/27 02:34:06;;;;;;;3.03;1.50;;;22.50;99.90;;;;;;1046788;28;20120;-73
2022/08/27 02:34:37;;;;;;;2.40;1.40;;;22.60;99.90;;;;;;1046948;28;20698;-70
2022/08/27 02:35:08;;;;;;;2.37;1.27;;;22.60;99.90;;;;;;1046744;28;20024;-70
2022/08/27 02:35:41;;;;;;;1.47;0.87;;;22.50;99.90;;;;;;1046268;28;20070;-70
2022/08/27 02:36:12;;;;;;;3.13;1.42;;;22.50;99.90;;;;;;1043960;28;20613;-69
2022/08/27 02:36:43;;;;;;;3.03;1.30;;;22.50;99.90;;;;;;1045202;28;20027;-70
2022/08/27 02:37:14;;;;;;;2.23;1.20;;;22.50;99.90;;;;;;1044446;28;20024;-70
2022/08/27 02:37:45;;;;;;;2.97;1.83;;;22.50;99.90;;;;;;1046782;28;20074;-70
2022/08/27 02:38:16;;;;;;;2.28;1.50;;;22.50;99.90;;;;;;1046671;28;20017;-70
2022/08/27 02:38:47;;;;;;;2.23;1.43;;;22.50;99.90;;;;;;1046950;28;20106;-70
2022/08/27 02:39:17;;;;;;;3.97;1.63;;;22.50;99.90;;;;;;1046951;28;20365;-70
2022/08/27 02:39:48;;;;;;;3.90;1.13;;;22.50;99.90;;;;;;1047307;28;20025;-69
2022/08/27 02:40:21;;;;;;;3.53;1.50;;;22.50;99.90;;;;;;1045281;28;20550;-70
2022/08/27 02:40:52;;;;;;;1.75;1.23;;;22.50;99.90;;;;;;1045248;28;20021;-70
2022/08/27 02:41:22;;;;;;;4.23;1.70;;;22.50;99.90;;;;;;1047231;28;20067;-69
2022/08/27 02:41:53;;;;;;;2.40;1.40;;;22.50;99.90;;;;;;1044277;28;20078;-70
2022/08/27 02:42:23;;;;;;;3.30;1.67;;;22.50;99.90;;;;;;1047174;28;20021;-70
2022/08/27 02:42:54;;;;;;;3.93;1.70;;;22.50;99.90;;;;;;1047045;28;20024;-70
2022/08/27 02:43:24;;;;;;;3.43;1.60;;;22.50;99.90;;;;;;1043139;28;20025;-69
2022/08/27 02:43:55;;;;;;;4.60;1.47;;;22.50;99.90;;;;;;1046910;28;20480;-69
2022/08/27 02:44:26;;;;;;;4.30;1.77;;;22.50;99.90;;;;;;1046412;28;20028;-71
2022/08/27 02:44:56;;;;;;;3.60;1.63;;;22.50;99.90;;;;;;1044161;28;20079;-69
2022/08/27 02:45:27;;;;;;;3.10;1.30;;;22.50;99.90;;;;;;1046780;28;20597;-69
2022/08/27 02:46:00;;;;;;;2.95;1.60;;;22.50;99.90;;;;;;1046769;28;20021;-70
2022/08/27 02:46:30;;;;;;;3.03;1.65;;;22.50;99.90;;;;;;1046922;28;20012;-69
2022/08/27 02:47:01;;;;;;;2.13;1.30;;;22.50;99.90;;;;;;1047316;28;20021;-69
2022/08/27 02:47:32;;;;;;;2.10;1.30;;;22.50;99.90;;;;;;1047229;28;20020;-69
2022/08/27 02:48:04;;;;;;;2.10;1.10;;;22.50;99.90;;;;;;1046908;28;20501;-69
2022/08/27 02:48:36;;;;;;;1.48;1.23;;;22.50;99.90;;;;;;1047214;28;20013;-70
2022/08/27 02:49:08;;;;;;;3.60;1.73;;;22.50;99.90;;;;;;1047057;28;20020;-70
2022/08/27 02:49:39;;;;;;;2.33;1.70;;;22.50;99.90;;;;;;1046569;28;20737;-70
2022/08/27 02:50:12;;;;;;;1.57;1.10;;;22.50;99.90;;;;;;1047013;28;20764;-69